sensor_id;sensor_type;location;lat;lon;timestamp;P1;durP1;ratioP1;P2;durP2;ratioP2
10805;SDS011;5455;53.224;6.000;2023-07-09T00:01:29;8.83;;;4.87;;
10805;SDS011;5455;53.224;6.000;2023-07-09T00:03:56;5.80;;;4.57;;
10805;SDS011;5455;53.224;6.000;2023-07-09T00:06:23;8.33;;;4.70;;
10805;SDS011;5455;53.224;6.000;2023-07-09T00:08:51;8.83;;;4.60;;
10805;SDS011;5455;53.224;6.000;2023-07-09T00:11:18;9.83;;;5.07;;
10805;SDS011;5455;53.224;6.000;2023-07-09T00:13:45;7.70;;;5.13;;
10805;SDS011;5455;53.224;6.000;2023-07-09T00:16:13;9.40;;;5.90;;
10805;SDS011;5455;53.224;6.000;2023-07-09T00:18:43;7.30;;;5.03;;
10805;SDS011;5455;53.224;6.000;2023-07-09T00:21:10;6.37;;;5.37;;
10805;SDS011;5455;53.224;6.000;2023-07-09T00:23:37;9.97;;;5.43;;
10805;SDS011;5455;53.224;6.000;2023-07-09T00:26:11;7.73;;;4.93;;
10805;SDS011;5455;53.224;6.000;2023-07-09T00:28:41;7.73;;;5.30;;
10805;SDS011;5455;53.224;6.000;2023-07-09T00:31:10;11.13;;;5.07;;
10805;SDS011;5455;53.224;6.000;2023-07-09T00:33:43;11.77;;;5.00;;
10805;SDS011;5455;53.224;6.000;2023-07-09T00:36:14;10.27;;;4.83;;
10805;SDS011;5455;53.224;6.000;2023-07-09T00:38:50;7.77;;;5.00;;
10805;SDS011;5455;53.224;6.000;2023-07-09T00:41:19;13.10;;;6.00;;
10805;SDS011;5455;53.224;6.000;2023-07-09T00:43:49;8.77;;;5.23;;
10805;SDS011;5455;53.224;6.000;2023-07-09T00:51:24;9.50;;;5.50;;
10805;SDS011;5455;53.224;6.000;2023-07-09T00:53:57;8.03;;;5.63;;
10805;SDS011;5455;53.224;6.000;2023-07-09T00:56:29;7.67;;;5.40;;
10805;SDS011;5455;53.224;6.000;2023-07-09T00:59:05;8.50;;;5.73;;
10805;SDS011;5455;53.224;6.000;2023-07-09T01:01:36;10.27;;;5.87;;
10805;SDS011;5455;53.224;6.000;2023-07-09T01:04:03;7.97;;;5.50;;
10805;SDS011;5455;53.224;6.000;2023-07-09T01:06:32;8.50;;;5.47;;
10805;SDS011;5455;53.224;6.000;2023-07-09T01:09:03;9.13;;;5.83;;
10805;SDS011;5455;53.224;6.000;2023-07-09T01:11:32;10.90;;;5.53;;
10805;SDS011;5455;53.224;6.000;2023-07-09T01:14:00;8.83;;;5.63;;
10805;SDS011;5455;53.224;6.000;2023-07-09T01:16:31;9.57;;;5.77;;
10805;SDS011;5455;53.224;6.000;2023-07-09T01:19:00;7.70;;;5.43;;
10805;SDS011;5455;53.224;6.000;2023-07-09T01:21:27;8.57;;;5.57;;
10805;SDS011;5455;53.224;6.000;2023-07-09T01:23:54;9.03;;;5.43;;
10805;SDS011;5455;53.224;6.000;2023-07-09T01:26:25;8.37;;;5.90;;
10805;SDS011;5455;53.224;6.000;2023-07-09T01:28:54;7.40;;;5.07;;
10805;SDS011;5455;53.224;6.000;2023-07-09T01:31:22;10.37;;;5.53;;
10805;SDS011;5455;53.224;6.000;2023-07-09T01:33:50;7.97;;;5.17;;
10805;SDS011;5455;53.224;6.000;2023-07-09T01:36:18;8.00;;;6.03;;
10805;SDS011;5455;53.224;6.000;2023-07-09T01:38:51;13.07;;;5.80;;
10805;SDS011;5455;53.224;6.000;2023-07-09T01:41:20;8.00;;;5.70;;
10805;SDS011;5455;53.224;6.000;2023-07-09T01:43:47;9.53;;;5.70;;
10805;SDS011;5455;53.224;6.000;2023-07-09T01:46:14;8.23;;;5.80;;
10805;SDS011;5455;53.224;6.000;2023-07-09T01:48:41;11.37;;;6.20;;
10805;SDS011;5455;53.224;6.000;2023-07-09T01:51:09;8.93;;;6.43;;
10805;SDS011;5455;53.224;6.000;2023-07-09T01:53:37;7.93;;;5.50;;
10805;SDS011;5455;53.224;6.000;2023-07-09T01:56:07;9.67;;;6.20;;
10805;SDS011;5455;53.224;6.000;2023-07-09T01:58:34;9.60;;;6.13;;
10805;SDS011;5455;53.224;6.000;2023-07-09T02:01:01;9.10;;;5.87;;
10805;SDS011;5455;53.224;6.000;2023-07-09T02:03:29;9.80;;;6.13;;
10805;SDS011;5455;53.224;6.000;2023-07-09T02:05:56;9.73;;;5.93;;
10805;SDS011;5455;53.224;6.000;2023-07-09T02:08:24;12.90;;;6.33;;
10805;SDS011;5455;53.224;6.000;2023-07-09T02:10:52;10.60;;;5.80;;
10805;SDS011;5455;53.224;6.000;2023-07-09T02:13:19;8.47;;;5.63;;
10805;SDS011;5455;53.224;6.000;2023-07-09T02:15:46;8.57;;;5.87;;
10805;SDS011;5455;53.224;6.000;2023-07-09T02:18:13;6.97;;;4.97;;
10805;SDS011;5455;53.224;6.000;2023-07-09T02:20:40;11.03;;;6.43;;
10805;SDS011;5455;53.224;6.000;2023-07-09T02:23:07;9.10;;;6.20;;
10805;SDS011;5455;53.224;6.000;2023-07-09T02:25:35;10.03;;;6.17;;
10805;SDS011;5455;53.224;6.000;2023-07-09T02:28:02;8.47;;;5.53;;
10805;SDS011;5455;53.224;6.000;2023-07-09T02:30:29;8.80;;;6.17;;
10805;SDS011;5455;53.224;6.000;2023-07-09T02:32:57;9.63;;;6.20;;
10805;SDS011;5455;53.224;6.000;2023-07-09T02:35:23;7.57;;;6.10;;
10805;SDS011;5455;53.224;6.000;2023-07-09T02:37:51;7.27;;;5.47;;
10805;SDS011;5455;53.224;6.000;2023-07-09T02:40:18;8.70;;;6.00;;
10805;SDS011;5455;53.224;6.000;2023-07-09T02:42:45;9.73;;;6.10;;
10805;SDS011;5455;53.224;6.000;2023-07-09T02:45:17;8.37;;;5.70;;
10805;SDS011;5455;53.224;6.000;2023-07-09T02:47:44;8.07;;;6.33;;
10805;SDS011;5455;53.224;6.000;2023-07-09T02:50:12;8.00;;;5.83;;
10805;SDS011;5455;53.224;6.000;2023-07-09T02:52:39;11.03;;;5.70;;
10805;SDS011;5455;53.224;6.000;2023-07-09T02:55:08;9.40;;;6.30;;
10805;SDS011;5455;53.224;6.000;2023-07-09T02:57:35;8.57;;;6.37;;
10805;SDS011;5455;53.224;6.000;2023-07-09T03:00:02;9.43;;;5.50;;
10805;SDS011;5455;53.224;6.000;2023-07-09T03:02:33;8.77;;;5.57;;
10805;SDS011;5455;53.224;6.000;2023-07-09T03:05:00;9.00;;;5.33;;
10805;SDS011;5455;53.224;6.000;2023-07-09T03:07:27;10.13;;;5.90;;
10805;SDS011;5455;53.224;6.000;2023-07-09T03:09:54;7.57;;;5.33;;
10805;SDS011;5455;53.224;6.000;2023-07-09T03:12:22;9.97;;;5.80;;
10805;SDS011;5455;53.224;6.000;2023-07-09T03:14:49;8.63;;;6.20;;
10805;SDS011;5455;53.224;6.000;2023-07-09T03:17:16;9.87;;;5.80;;
10805;SDS011;5455;53.224;6.000;2023-07-09T03:19:43;8.33;;;5.83;;
10805;SDS011;5455;53.224;6.000;2023-07-09T03:22:10;8.07;;;5.77;;
10805;SDS011;5455;53.224;6.000;2023-07-09T03:24:37;8.43;;;6.20;;
10805;SDS011;5455;53.224;6.000;2023-07-09T03:27:04;8.57;;;5.93;;
10805;SDS011;5455;53.224;6.000;2023-07-09T03:29:31;13.07;;;6.37;;
10805;SDS011;5455;53.224;6.000;2023-07-09T03:31:58;8.57;;;5.63;;
10805;SDS011;5455;53.224;6.000;2023-07-09T03:34:25;9.23;;;6.30;;
10805;SDS011;5455;53.224;6.000;2023-07-09T03:36:52;7.27;;;5.90;;
10805;SDS011;5455;53.224;6.000;2023-07-09T03:39:19;8.47;;;6.30;;
10805;SDS011;5455;53.224;6.000;2023-07-09T03:41:46;13.17;;;5.40;;
10805;SDS011;5455;53.224;6.000;2023-07-09T03:44:13;9.33;;;5.60;;
10805;SDS011;5455;53.224;6.000;2023-07-09T03:46:40;7.67;;;6.03;;
10805;SDS011;5455;53.224;6.000;2023-07-09T03:49:07;12.40;;;6.20;;
10805;SDS011;5455;53.224;6.000;2023-07-09T03:51:34;7.67;;;6.27;;
10805;SDS011;5455;53.224;6.000;2023-07-09T03:54:01;8.30;;;6.23;;
10805;SDS011;5455;53.224;6.000;2023-07-09T03:56:28;9.60;;;6.10;;
10805;SDS011;5455;53.224;6.000;2023-07-09T03:58:55;9.67;;;6.13;;
10805;SDS011;5455;53.224;6.000;2023-07-09T04:01:22;9.87;;;6.23;;
10805;SDS011;5455;53.224;6.000;2023-07-09T04:03:49;11.10;;;6.23;;
10805;SDS011;5455;53.224;6.000;2023-07-09T04:06:16;7.93;;;5.53;;
10805;SDS011;5455;53.224;6.000;2023-07-09T04:08:43;9.33;;;6.33;;
10805;SDS011;5455;53.224;6.000;2023-07-09T04:11:10;9.57;;;6.03;;
10805;SDS011;5455;53.224;6.000;2023-07-09T04:13:37;11.27;;;6.63;;
10805;SDS011;5455;53.224;6.000;2023-07-09T04:16:05;8.07;;;5.87;;
10805;SDS011;5455;53.224;6.000;2023-07-09T04:18:33;12.83;;;6.60;;
10805;SDS011;5455;53.224;6.000;2023-07-09T04:20:59;16.03;;;6.53;;
10805;SDS011;5455;53.224;6.000;2023-07-09T04:23:27;10.07;;;6.03;;
10805;SDS011;5455;53.224;6.000;2023-07-09T04:25:53;8.57;;;6.43;;
10805;SDS011;5455;53.224;6.000;2023-07-09T04:28:20;8.37;;;6.10;;
10805;SDS011;5455;53.224;6.000;2023-07-09T04:30:51;8.40;;;6.17;;
10805;SDS011;5455;53.224;6.000;2023-07-09T04:33:19;10.40;;;6.47;;
10805;SDS011;5455;53.224;6.000;2023-07-09T04:35:49;10.90;;;6.40;;
10805;SDS011;5455;53.224;6.000;2023-07-09T04:38:16;9.70;;;6.30;;
10805;SDS011;5455;53.224;6.000;2023-07-09T04:40:44;9.40;;;6.90;;
10805;SDS011;5455;53.224;6.000;2023-07-09T04:43:13;7.67;;;6.10;;
10805;SDS011;5455;53.224;6.000;2023-07-09T04:45:40;7.33;;;6.17;;
10805;SDS011;5455;53.224;6.000;2023-07-09T04:48:07;8.70;;;6.30;;
10805;SDS011;5455;53.224;6.000;2023-07-09T04:50:34;8.90;;;6.20;;
10805;SDS011;5455;53.224;6.000;2023-07-09T04:53:01;10.53;;;6.20;;
10805;SDS011;5455;53.224;6.000;2023-07-09T04:55:29;10.60;;;5.97;;
10805;SDS011;5455;53.224;6.000;2023-07-09T04:57:56;9.20;;;6.30;;
10805;SDS011;5455;53.224;6.000;2023-07-09T05:00:23;11.67;;;6.20;;
10805;SDS011;5455;53.224;6.000;2023-07-09T05:02:50;10.00;;;6.33;;
10805;SDS011;5455;53.224;6.000;2023-07-09T05:05:17;7.47;;;6.60;;
10805;SDS011;5455;53.224;6.000;2023-07-09T05:07:44;10.03;;;6.70;;
10805;SDS011;5455;53.224;6.000;2023-07-09T05:10:11;8.80;;;5.90;;
10805;SDS011;5455;53.224;6.000;2023-07-09T05:12:51;10.23;;;6.50;;
10805;SDS011;5455;53.224;6.000;2023-07-09T05:15:19;7.70;;;5.97;;
10805;SDS011;5455;53.224;6.000;2023-07-09T05:17:48;11.53;;;6.93;;
10805;SDS011;5455;53.224;6.000;2023-07-09T05:20:15;8.93;;;6.40;;
10805;SDS011;5455;53.224;6.000;2023-07-09T05:22:42;14.70;;;6.70;;
10805;SDS011;5455;53.224;6.000;2023-07-09T05:25:09;8.33;;;6.10;;
10805;SDS011;5455;53.224;6.000;2023-07-09T05:27:36;8.97;;;6.10;;
10805;SDS011;5455;53.224;6.000;2023-07-09T05:30:03;9.10;;;5.70;;
10805;SDS011;5455;53.224;6.000;2023-07-09T05:32:31;10.80;;;6.33;;
10805;SDS011;5455;53.224;6.000;2023-07-09T05:34:58;8.27;;;5.43;;
10805;SDS011;5455;53.224;6.000;2023-07-09T05:37:25;9.00;;;5.77;;
10805;SDS011;5455;53.224;6.000;2023-07-09T05:39:52;9.57;;;6.70;;
10805;SDS011;5455;53.224;6.000;2023-07-09T05:42:20;9.87;;;6.13;;
10805;SDS011;5455;53.224;6.000;2023-07-09T05:44:46;9.43;;;6.17;;
10805;SDS011;5455;53.224;6.000;2023-07-09T05:47:14;12.30;;;6.80;;
10805;SDS011;5455;53.224;6.000;2023-07-09T05:49:41;11.00;;;6.83;;
10805;SDS011;5455;53.224;6.000;2023-07-09T05:52:08;10.80;;;6.50;;
10805;SDS011;5455;53.224;6.000;2023-07-09T05:54:35;10.13;;;6.63;;
10805;SDS011;5455;53.224;6.000;2023-07-09T05:57:03;15.30;;;6.90;;
10805;SDS011;5455;53.224;6.000;2023-07-09T05:59:30;10.33;;;6.47;;
10805;SDS011;5455;53.224;6.000;2023-07-09T06:01:57;9.00;;;6.10;;
10805;SDS011;5455;53.224;6.000;2023-07-09T06:04:27;7.93;;;5.80;;
10805;SDS011;5455;53.224;6.000;2023-07-09T06:06:54;11.57;;;6.57;;
10805;SDS011;5455;53.224;6.000;2023-07-09T06:09:22;10.73;;;6.43;;
10805;SDS011;5455;53.224;6.000;2023-07-09T06:11:50;9.37;;;6.50;;
10805;SDS011;5455;53.224;6.000;2023-07-09T06:14:17;11.27;;;6.27;;
10805;SDS011;5455;53.224;6.000;2023-07-09T06:16:45;8.40;;;6.00;;
10805;SDS011;5455;53.224;6.000;2023-07-09T06:19:12;10.13;;;7.43;;
10805;SDS011;5455;53.224;6.000;2023-07-09T06:21:39;8.43;;;6.23;;
10805;SDS011;5455;53.224;6.000;2023-07-09T06:24:07;10.63;;;7.00;;
10805;SDS011;5455;53.224;6.000;2023-07-09T06:26:34;9.43;;;7.13;;
10805;SDS011;5455;53.224;6.000;2023-07-09T06:29:02;9.87;;;6.77;;
10805;SDS011;5455;53.224;6.000;2023-07-09T06:31:29;9.73;;;6.30;;
10805;SDS011;5455;53.224;6.000;2023-07-09T06:33:57;9.53;;;6.80;;
10805;SDS011;5455;53.224;6.000;2023-07-09T06:36:24;12.53;;;7.07;;
10805;SDS011;5455;53.224;6.000;2023-07-09T06:38:52;9.70;;;6.20;;
10805;SDS011;5455;53.224;6.000;2023-07-09T06:41:19;9.07;;;6.43;;
10805;SDS011;5455;53.224;6.000;2023-07-09T06:43:46;11.13;;;7.30;;
10805;SDS011;5455;53.224;6.000;2023-07-09T06:46:13;9.50;;;7.00;;
10805;SDS011;5455;53.224;6.000;2023-07-09T06:48:41;10.00;;;6.67;;
10805;SDS011;5455;53.224;6.000;2023-07-09T06:51:08;10.10;;;6.60;;
10805;SDS011;5455;53.224;6.000;2023-07-09T06:53:35;12.53;;;7.30;;
10805;SDS011;5455;53.224;6.000;2023-07-09T06:56:03;9.17;;;6.93;;
10805;SDS011;5455;53.224;6.000;2023-07-09T06:58:31;11.63;;;7.87;;
10805;SDS011;5455;53.224;6.000;2023-07-09T07:01:00;10.77;;;7.23;;
10805;SDS011;5455;53.224;6.000;2023-07-09T07:03:32;11.53;;;7.13;;
10805;SDS011;5455;53.224;6.000;2023-07-09T07:06:00;11.50;;;7.70;;
10805;SDS011;5455;53.224;6.000;2023-07-09T07:08:28;12.47;;;8.23;;
10805;SDS011;5455;53.224;6.000;2023-07-09T07:10:56;11.83;;;8.90;;
10805;SDS011;5455;53.224;6.000;2023-07-09T07:13:30;13.23;;;7.63;;
10805;SDS011;5455;53.224;6.000;2023-07-09T07:16:02;10.97;;;7.83;;
10805;SDS011;5455;53.224;6.000;2023-07-09T07:18:31;12.90;;;8.60;;
10805;SDS011;5455;53.224;6.000;2023-07-09T07:20:58;13.37;;;8.27;;
10805;SDS011;5455;53.224;6.000;2023-07-09T07:23:26;12.63;;;7.97;;
10805;SDS011;5455;53.224;6.000;2023-07-09T07:25:53;10.90;;;8.97;;
10805;SDS011;5455;53.224;6.000;2023-07-09T07:28:21;13.50;;;8.37;;
10805;SDS011;5455;53.224;6.000;2023-07-09T07:33:45;14.17;;;9.23;;
10805;SDS011;5455;53.224;6.000;2023-07-09T07:36:12;13.40;;;9.40;;
10805;SDS011;5455;53.224;6.000;2023-07-09T07:38:55;13.90;;;8.67;;
10805;SDS011;5455;53.224;6.000;2023-07-09T07:41:22;15.80;;;9.50;;
10805;SDS011;5455;53.224;6.000;2023-07-09T07:43:51;13.33;;;9.20;;
10805;SDS011;5455;53.224;6.000;2023-07-09T07:46:18;15.20;;;10.77;;
10805;SDS011;5455;53.224;6.000;2023-07-09T07:48:45;14.53;;;9.47;;
10805;SDS011;5455;53.224;6.000;2023-07-09T07:51:12;17.50;;;8.90;;
10805;SDS011;5455;53.224;6.000;2023-07-09T07:53:39;17.90;;;10.80;;
10805;SDS011;5455;53.224;6.000;2023-07-09T07:56:06;16.43;;;10.17;;
10805;SDS011;5455;53.224;6.000;2023-07-09T07:58:33;14.30;;;10.13;;
10805;SDS011;5455;53.224;6.000;2023-07-09T08:01:00;17.20;;;10.30;;
10805;SDS011;5455;53.224;6.000;2023-07-09T08:03:28;15.37;;;10.20;;
10805;SDS011;5455;53.224;6.000;2023-07-09T08:05:55;15.77;;;10.67;;
10805;SDS011;5455;53.224;6.000;2023-07-09T08:08:26;15.53;;;10.43;;
10805;SDS011;5455;53.224;6.000;2023-07-09T08:10:59;14.20;;;10.50;;
10805;SDS011;5455;53.224;6.000;2023-07-09T08:13:32;16.73;;;11.33;;
10805;SDS011;5455;53.224;6.000;2023-07-09T08:16:00;17.33;;;11.70;;
10805;SDS011;5455;53.224;6.000;2023-07-09T08:18:28;14.87;;;10.90;;
10805;SDS011;5455;53.224;6.000;2023-07-09T08:20:55;17.53;;;12.00;;
10805;SDS011;5455;53.224;6.000;2023-07-09T08:23:24;15.53;;;11.20;;
10805;SDS011;5455;53.224;6.000;2023-07-09T08:25:52;17.13;;;11.77;;
10805;SDS011;5455;53.224;6.000;2023-07-09T08:28:20;19.77;;;11.23;;
10805;SDS011;5455;53.224;6.000;2023-07-09T08:30:47;16.13;;;10.83;;
10805;SDS011;5455;53.224;6.000;2023-07-09T08:33:14;16.17;;;11.10;;
10805;SDS011;5455;53.224;6.000;2023-07-09T08:35:42;17.37;;;10.97;;
10805;SDS011;5455;53.224;6.000;2023-07-09T08:38:09;18.10;;;10.80;;
10805;SDS011;5455;53.224;6.000;2023-07-09T08:40:40;17.33;;;11.73;;
10805;SDS011;5455;53.224;6.000;2023-07-09T08:48:41;14.70;;;9.93;;
10805;SDS011;5455;53.224;6.000;2023-07-09T08:51:17;11.53;;;7.90;;
10805;SDS011;5455;53.224;6.000;2023-07-09T08:53:49;10.60;;;7.87;;
10805;SDS011;5455;53.224;6.000;2023-07-09T08:56:20;11.47;;;6.67;;
10805;SDS011;5455;53.224;6.000;2023-07-09T08:58:49;11.27;;;6.57;;
10805;SDS011;5455;53.224;6.000;2023-07-09T09:01:23;9.27;;;6.80;;
10805;SDS011;5455;53.224;6.000;2023-07-09T09:03:55;9.53;;;6.70;;
10805;SDS011;5455;53.224;6.000;2023-07-09T09:06:27;11.93;;;6.63;;
10805;SDS011;5455;53.224;6.000;2023-07-09T09:09:09;12.87;;;7.23;;
10805;SDS011;5455;53.224;6.000;2023-07-09T09:14:43;10.57;;;6.33;;
10805;SDS011;5455;53.224;6.000;2023-07-09T09:17:14;12.33;;;7.07;;
10805;SDS011;5455;53.224;6.000;2023-07-09T09:19:45;13.53;;;8.03;;
10805;SDS011;5455;53.224;6.000;2023-07-09T09:22:25;9.03;;;6.70;;
10805;SDS011;5455;53.224;6.000;2023-07-09T09:25:12;9.33;;;6.93;;
10805;SDS011;5455;53.224;6.000;2023-07-09T09:27:47;11.93;;;8.17;;
10805;SDS011;5455;53.224;6.000;2023-07-09T09:30:15;10.37;;;7.53;;
10805;SDS011;5455;53.224;6.000;2023-07-09T09:32:49;11.27;;;8.30;;
10805;SDS011;5455;53.224;6.000;2023-07-09T09:37:57;10.07;;;7.20;;
10805;SDS011;5455;53.224;6.000;2023-07-09T09:40:25;8.10;;;5.43;;
10805;SDS011;5455;53.224;6.000;2023-07-09T09:42:58;7.80;;;5.07;;
10805;SDS011;5455;53.224;6.000;2023-07-09T09:45:28;6.70;;;4.67;;
10805;SDS011;5455;53.224;6.000;2023-07-09T09:48:00;9.03;;;4.43;;
10805;SDS011;5455;53.224;6.000;2023-07-09T09:50:35;8.13;;;4.63;;
10805;SDS011;5455;53.224;6.000;2023-07-09T09:53:03;7.43;;;3.30;;
10805;SDS011;5455;53.224;6.000;2023-07-09T09:55:34;6.23;;;3.33;;
10805;SDS011;5455;53.224;6.000;2023-07-09T09:58:01;6.43;;;3.80;;
10805;SDS011;5455;53.224;6.000;2023-07-09T10:00:29;7.00;;;4.77;;
10805;SDS011;5455;53.224;6.000;2023-07-09T10:03:01;12.33;;;7.53;;
10805;SDS011;5455;53.224;6.000;2023-07-09T10:05:40;5.50;;;3.77;;
10805;SDS011;5455;53.224;6.000;2023-07-09T10:08:13;5.97;;;3.30;;
10805;SDS011;5455;53.224;6.000;2023-07-09T10:11:12;4.90;;;3.20;;
10805;SDS011;5455;53.224;6.000;2023-07-09T10:13:48;5.63;;;3.40;;
10805;SDS011;5455;53.224;6.000;2023-07-09T10:16:24;8.73;;;3.60;;
10805;SDS011;5455;53.224;6.000;2023-07-09T10:24:45;5.97;;;3.47;;
10805;SDS011;5455;53.224;6.000;2023-07-09T10:40:47;6.33;;;3.33;;
10805;SDS011;5455;53.224;6.000;2023-07-09T10:43:50;7.73;;;3.47;;
10805;SDS011;5455;53.224;6.000;2023-07-09T10:46:24;4.87;;;3.63;;
10805;SDS011;5455;53.224;6.000;2023-07-09T10:48:55;8.43;;;3.50;;
10805;SDS011;5455;53.224;6.000;2023-07-09T10:56:51;5.23;;;3.70;;
10805;SDS011;5455;53.224;6.000;2023-07-09T10:59:27;6.00;;;3.60;;
10805;SDS011;5455;53.224;6.000;2023-07-09T11:02:01;7.37;;;3.63;;
10805;SDS011;5455;53.224;6.000;2023-07-09T11:04:44;7.00;;;3.30;;
10805;SDS011;5455;53.224;6.000;2023-07-09T11:07:17;5.10;;;2.93;;
10805;SDS011;5455;53.224;6.000;2023-07-09T11:09:50;5.07;;;3.03;;
10805;SDS011;5455;53.224;6.000;2023-07-09T11:17:45;4.93;;;3.00;;
10805;SDS011;5455;53.224;6.000;2023-07-09T11:20:20;6.63;;;3.07;;
10805;SDS011;5455;53.224;6.000;2023-07-09T11:23:01;6.97;;;3.90;;
10805;SDS011;5455;53.224;6.000;2023-07-09T11:26:22;5.17;;;3.53;;
10805;SDS011;5455;53.224;6.000;2023-07-09T11:28:37;6.70;;;3.57;;
10805;SDS011;5455;53.224;6.000;2023-07-09T11:31:16;5.23;;;3.10;;
10805;SDS011;5455;53.224;6.000;2023-07-09T11:33:49;7.20;;;3.23;;
10805;SDS011;5455;53.224;6.000;2023-07-09T11:36:27;6.50;;;3.57;;
10805;SDS011;5455;53.224;6.000;2023-07-09T11:38:56;6.20;;;3.33;;
10805;SDS011;5455;53.224;6.000;2023-07-09T11:49:59;6.47;;;3.30;;
10805;SDS011;5455;53.224;6.000;2023-07-09T11:52:39;6.67;;;3.17;;
10805;SDS011;5455;53.224;6.000;2023-07-09T11:55:54;5.73;;;3.40;;
10805;SDS011;5455;53.224;6.000;2023-07-09T11:58:16;7.97;;;3.47;;
10805;SDS011;5455;53.224;6.000;2023-07-09T12:00:54;7.50;;;3.47;;
10805;SDS011;5455;53.224;6.000;2023-07-09T12:03:33;5.63;;;2.90;;
10805;SDS011;5455;53.224;6.000;2023-07-09T12:06:21;5.87;;;2.90;;
10805;SDS011;5455;53.224;6.000;2023-07-09T12:08:51;6.17;;;3.03;;
10805;SDS011;5455;53.224;6.000;2023-07-09T12:11:29;5.70;;;3.40;;
10805;SDS011;5455;53.224;6.000;2023-07-09T12:14:01;4.77;;;3.07;;
10805;SDS011;5455;53.224;6.000;2023-07-09T12:16:31;5.03;;;3.10;;
10805;SDS011;5455;53.224;6.000;2023-07-09T12:19:01;7.10;;;3.53;;
10805;SDS011;5455;53.224;6.000;2023-07-09T12:21:29;6.97;;;3.57;;
10805;SDS011;5455;53.224;6.000;2023-07-09T12:23:58;15.00;;;7.87;;
10805;SDS011;5455;53.224;6.000;2023-07-09T12:26:25;6.30;;;3.40;;
10805;SDS011;5455;53.224;6.000;2023-07-09T12:28:52;7.10;;;3.37;;
10805;SDS011;5455;53.224;6.000;2023-07-09T12:31:26;5.37;;;3.10;;
10805;SDS011;5455;53.224;6.000;2023-07-09T12:33:55;5.40;;;3.07;;
10805;SDS011;5455;53.224;6.000;2023-07-09T12:36:25;5.47;;;2.77;;
10805;SDS011;5455;53.224;6.000;2023-07-09T12:38:55;6.43;;;3.40;;
10805;SDS011;5455;53.224;6.000;2023-07-09T12:44:17;11.03;;;3.17;;
10805;SDS011;5455;53.224;6.000;2023-07-09T12:46:46;7.13;;;3.40;;
10805;SDS011;5455;53.224;6.000;2023-07-09T12:49:21;8.07;;;3.10;;
10805;SDS011;5455;53.224;6.000;2023-07-09T12:51:59;5.30;;;3.50;;
10805;SDS011;5455;53.224;6.000;2023-07-09T12:54:28;7.33;;;3.40;;
10805;SDS011;5455;53.224;6.000;2023-07-09T12:56:58;6.17;;;3.63;;
10805;SDS011;5455;53.224;6.000;2023-07-09T12:59:27;6.47;;;3.30;;
10805;SDS011;5455;53.224;6.000;2023-07-09T13:02:14;7.67;;;3.20;;
10805;SDS011;5455;53.224;6.000;2023-07-09T13:04:45;8.40;;;3.90;;
10805;SDS011;5455;53.224;6.000;2023-07-09T13:10:27;5.93;;;3.23;;
10805;SDS011;5455;53.224;6.000;2023-07-09T13:12:54;6.43;;;3.57;;
10805;SDS011;5455;53.224;6.000;2023-07-09T13:15:31;5.70;;;4.13;;
10805;SDS011;5455;53.224;6.000;2023-07-09T13:18:11;8.43;;;4.37;;
10805;SDS011;5455;53.224;6.000;2023-07-09T13:20:40;8.80;;;4.40;;
10805;SDS011;5455;53.224;6.000;2023-07-09T13:23:16;11.83;;;4.43;;
10805;SDS011;5455;53.224;6.000;2023-07-09T13:25:45;6.30;;;3.50;;
10805;SDS011;5455;53.224;6.000;2023-07-09T13:28:18;6.27;;;3.80;;
10805;SDS011;5455;53.224;6.000;2023-07-09T13:31:01;7.37;;;4.03;;
10805;SDS011;5455;53.224;6.000;2023-07-09T13:33:37;7.40;;;4.07;;
10805;SDS011;5455;53.224;6.000;2023-07-09T13:36:04;7.13;;;3.73;;
10805;SDS011;5455;53.224;6.000;2023-07-09T13:38:33;7.93;;;3.70;;
10805;SDS011;5455;53.224;6.000;2023-07-09T13:41:09;6.57;;;3.77;;
10805;SDS011;5455;53.224;6.000;2023-07-09T13:43:42;8.53;;;3.97;;
10805;SDS011;5455;53.224;6.000;2023-07-09T13:46:12;5.90;;;3.77;;
10805;SDS011;5455;53.224;6.000;2023-07-09T13:48:40;6.03;;;3.73;;
10805;SDS011;5455;53.224;6.000;2023-07-09T13:51:18;7.33;;;3.80;;
10805;SDS011;5455;53.224;6.000;2023-07-09T13:53:48;7.63;;;4.10;;
10805;SDS011;5455;53.224;6.000;2023-07-09T13:56:18;6.50;;;4.00;;
10805;SDS011;5455;53.224;6.000;2023-07-09T13:58:45;6.80;;;4.50;;
10805;SDS011;5455;53.224;6.000;2023-07-09T14:01:13;6.90;;;3.90;;
10805;SDS011;5455;53.224;6.000;2023-07-09T14:03:42;6.73;;;4.10;;
10805;SDS011;5455;53.224;6.000;2023-07-09T14:06:14;8.30;;;4.07;;
10805;SDS011;5455;53.224;6.000;2023-07-09T14:08:42;5.43;;;3.70;;
10805;SDS011;5455;53.224;6.000;2023-07-09T14:11:15;6.20;;;3.80;;
10805;SDS011;5455;53.224;6.000;2023-07-09T14:13:43;5.20;;;3.60;;
10805;SDS011;5455;53.224;6.000;2023-07-09T14:16:11;6.63;;;3.80;;
10805;SDS011;5455;53.224;6.000;2023-07-09T14:18:39;5.83;;;3.60;;
10805;SDS011;5455;53.224;6.000;2023-07-09T14:21:17;6.40;;;3.47;;
10805;SDS011;5455;53.224;6.000;2023-07-09T14:23:50;5.43;;;3.57;;
10805;SDS011;5455;53.224;6.000;2023-07-09T14:26:17;8.53;;;3.87;;
10805;SDS011;5455;53.224;6.000;2023-07-09T14:28:44;5.83;;;2.37;;
10805;SDS011;5455;53.224;6.000;2023-07-09T14:31:24;5.03;;;2.80;;
10805;SDS011;5455;53.224;6.000;2023-07-09T14:34:15;7.10;;;3.07;;
10805;SDS011;5455;53.224;6.000;2023-07-09T14:36:48;6.57;;;3.10;;
10805;SDS011;5455;53.224;6.000;2023-07-09T14:39:16;6.87;;;3.20;;
10805;SDS011;5455;53.224;6.000;2023-07-09T14:41:43;4.97;;;3.33;;
10805;SDS011;5455;53.224;6.000;2023-07-09T14:44:31;4.93;;;2.90;;
10805;SDS011;5455;53.224;6.000;2023-07-09T14:46:58;7.33;;;2.80;;
10805;SDS011;5455;53.224;6.000;2023-07-09T14:49:27;2.63;;;2.17;;
10805;SDS011;5455;53.224;6.000;2023-07-09T14:51:55;7.23;;;2.50;;
10805;SDS011;5455;53.224;6.000;2023-07-09T14:54:23;8.70;;;3.03;;
10805;SDS011;5455;53.224;6.000;2023-07-09T14:56:53;5.10;;;2.97;;
10805;SDS011;5455;53.224;6.000;2023-07-09T14:59:21;11.03;;;3.30;;
10805;SDS011;5455;53.224;6.000;2023-07-09T15:01:49;7.07;;;3.23;;
10805;SDS011;5455;53.224;6.000;2023-07-09T15:06:53;10.87;;;3.67;;
10805;SDS011;5455;53.224;6.000;2023-07-09T15:09:22;10.63;;;3.77;;
10805;SDS011;5455;53.224;6.000;2023-07-09T15:11:52;11.47;;;4.97;;
10805;SDS011;5455;53.224;6.000;2023-07-09T15:14:21;11.63;;;3.93;;
10805;SDS011;5455;53.224;6.000;2023-07-09T15:16:50;7.77;;;3.13;;
10805;SDS011;5455;53.224;6.000;2023-07-09T15:19:18;10.37;;;3.60;;
10805;SDS011;5455;53.224;6.000;2023-07-09T15:21:46;11.60;;;3.60;;
10805;SDS011;5455;53.224;6.000;2023-07-09T15:24:28;12.03;;;3.90;;
10805;SDS011;5455;53.224;6.000;2023-07-09T15:26:58;14.73;;;4.50;;
10805;SDS011;5455;53.224;6.000;2023-07-09T15:29:27;10.60;;;3.93;;
10805;SDS011;5455;53.224;6.000;2023-07-09T15:31:55;9.13;;;4.10;;
10805;SDS011;5455;53.224;6.000;2023-07-09T15:34:22;12.23;;;3.77;;
10805;SDS011;5455;53.224;6.000;2023-07-09T15:36:51;8.13;;;3.47;;
10805;SDS011;5455;53.224;6.000;2023-07-09T15:39:19;7.57;;;3.47;;
10805;SDS011;5455;53.224;6.000;2023-07-09T15:41:47;13.17;;;4.00;;
10805;SDS011;5455;53.224;6.000;2023-07-09T15:44:15;11.00;;;3.73;;
10805;SDS011;5455;53.224;6.000;2023-07-09T15:46:51;8.60;;;3.47;;
10805;SDS011;5455;53.224;6.000;2023-07-09T15:49:23;9.37;;;3.57;;
10805;SDS011;5455;53.224;6.000;2023-07-09T15:51:50;12.20;;;3.57;;
10805;SDS011;5455;53.224;6.000;2023-07-09T15:54:21;9.73;;;3.47;;
10805;SDS011;5455;53.224;6.000;2023-07-09T15:56:52;11.30;;;3.90;;
10805;SDS011;5455;53.224;6.000;2023-07-09T15:59:34;13.43;;;3.70;;
10805;SDS011;5455;53.224;6.000;2023-07-09T16:02:03;9.83;;;3.93;;
10805;SDS011;5455;53.224;6.000;2023-07-09T16:04:37;9.47;;;3.73;;
10805;SDS011;5455;53.224;6.000;2023-07-09T16:07:05;6.23;;;3.00;;
10805;SDS011;5455;53.224;6.000;2023-07-09T16:09:32;13.23;;;3.47;;
10805;SDS011;5455;53.224;6.000;2023-07-09T16:11:59;8.60;;;3.50;;
10805;SDS011;5455;53.224;6.000;2023-07-09T16:14:28;6.83;;;2.90;;
10805;SDS011;5455;53.224;6.000;2023-07-09T16:16:58;8.67;;;3.00;;
10805;SDS011;5455;53.224;6.000;2023-07-09T16:19:28;8.13;;;2.87;;